sensor_id;sensor_type;location;lat;lon;timestamp;P1;durP1;ratioP1;P2;durP2;ratioP2
36551;SDS011;22559;54.176;12.102;2023-07-13T00:01:47;4.60;;;2.40;;
36551;SDS011;22559;54.176;12.102;2023-07-13T00:04:15;6.40;;;2.70;;
36551;SDS011;22559;54.176;12.102;2023-07-13T00:06:46;3.07;;;2.57;;
36551;SDS011;22559;54.176;12.102;2023-07-13T00:09:15;2.63;;;2.40;;
36551;SDS011;22559;54.176;12.102;2023-07-13T00:11:42;3.00;;;2.70;;
36551;SDS011;22559;54.176;12.102;2023-07-13T00:14:09;2.80;;;2.20;;
36551;SDS011;22559;54.176;12.102;2023-07-13T00:16:36;3.47;;;2.80;;
36551;SDS011;22559;54.176;12.102;2023-07-13T00:19:03;4.33;;;2.30;;
36551;SDS011;22559;54.176;12.102;2023-07-13T00:21:29;4.03;;;2.60;;
36551;SDS011;22559;54.176;12.102;2023-07-13T00:23:55;3.50;;;2.37;;
36551;SDS011;22559;54.176;12.102;2023-07-13T00:26:20;2.33;;;2.23;;
36551;SDS011;22559;54.176;12.102;2023-07-13T00:28:46;3.97;;;2.60;;
36551;SDS011;22559;54.176;12.102;2023-07-13T00:31:12;4.63;;;2.50;;
36551;SDS011;22559;54.176;12.102;2023-07-13T00:33:41;5.03;;;2.60;;
36551;SDS011;22559;54.176;12.102;2023-07-13T00:36:07;3.00;;;2.63;;
36551;SDS011;22559;54.176;12.102;2023-07-13T00:38:34;4.67;;;2.27;;
36551;SDS011;22559;54.176;12.102;2023-07-13T00:41:01;5.30;;;2.80;;
36551;SDS011;22559;54.176;12.102;2023-07-13T00:43:28;2.63;;;2.30;;
36551;SDS011;22559;54.176;12.102;2023-07-13T00:48:24;3.23;;;2.23;;
36551;SDS011;22559;54.176;12.102;2023-07-13T00:50:53;2.37;;;2.17;;
36551;SDS011;22559;54.176;12.102;2023-07-13T00:53:23;3.13;;;2.30;;
36551;SDS011;22559;54.176;12.102;2023-07-13T00:55:51;2.53;;;2.30;;
36551;SDS011;22559;54.176;12.102;2023-07-13T00:58:19;2.87;;;2.30;;
36551;SDS011;22559;54.176;12.102;2023-07-13T01:00:45;3.87;;;2.70;;
36551;SDS011;22559;54.176;12.102;2023-07-13T01:03:13;4.33;;;2.30;;
36551;SDS011;22559;54.176;12.102;2023-07-13T01:05:40;3.37;;;2.60;;
36551;SDS011;22559;54.176;12.102;2023-07-13T01:08:06;3.53;;;2.70;;
36551;SDS011;22559;54.176;12.102;2023-07-13T01:10:31;3.87;;;2.87;;
36551;SDS011;22559;54.176;12.102;2023-07-13T01:13:04;4.10;;;2.40;;
36551;SDS011;22559;54.176;12.102;2023-07-13T01:15:45;5.57;;;2.80;;
36551;SDS011;22559;54.176;12.102;2023-07-13T01:18:14;4.33;;;2.50;;
36551;SDS011;22559;54.176;12.102;2023-07-13T01:20:55;6.50;;;2.57;;
36551;SDS011;22559;54.176;12.102;2023-07-13T01:23:22;3.97;;;2.33;;
36551;SDS011;22559;54.176;12.102;2023-07-13T01:25:49;4.73;;;2.90;;
36551;SDS011;22559;54.176;12.102;2023-07-13T01:28:16;4.37;;;2.50;;
36551;SDS011;22559;54.176;12.102;2023-07-13T01:30:42;2.50;;;2.40;;
36551;SDS011;22559;54.176;12.102;2023-07-13T01:33:10;3.43;;;2.37;;
36551;SDS011;22559;54.176;12.102;2023-07-13T01:35:37;7.23;;;2.60;;
36551;SDS011;22559;54.176;12.102;2023-07-13T01:38:03;2.60;;;2.40;;
36551;SDS011;22559;54.176;12.102;2023-07-13T01:40:30;3.27;;;2.30;;
36551;SDS011;22559;54.176;12.102;2023-07-13T01:42:55;2.97;;;2.30;;
36551;SDS011;22559;54.176;12.102;2023-07-13T01:45:21;3.00;;;2.80;;
36551;SDS011;22559;54.176;12.102;2023-07-13T01:47:47;2.97;;;2.53;;
36551;SDS011;22559;54.176;12.102;2023-07-13T01:50:12;4.33;;;2.47;;
36551;SDS011;22559;54.176;12.102;2023-07-13T01:52:38;2.80;;;2.60;;
36551;SDS011;22559;54.176;12.102;2023-07-13T01:55:04;5.23;;;2.80;;
36551;SDS011;22559;54.176;12.102;2023-07-13T01:57:30;5.27;;;2.80;;
36551;SDS011;22559;54.176;12.102;2023-07-13T01:59:55;4.73;;;2.53;;
36551;SDS011;22559;54.176;12.102;2023-07-13T02:02:21;4.50;;;2.50;;
36551;SDS011;22559;54.176;12.102;2023-07-13T02:04:47;3.13;;;2.37;;
36551;SDS011;22559;54.176;12.102;2023-07-13T02:07:13;3.00;;;2.13;;
36551;SDS011;22559;54.176;12.102;2023-07-13T02:09:40;6.67;;;2.33;;
36551;SDS011;22559;54.176;12.102;2023-07-13T02:12:07;3.73;;;2.40;;
36551;SDS011;22559;54.176;12.102;2023-07-13T02:14:33;3.10;;;2.30;;
36551;SDS011;22559;54.176;12.102;2023-07-13T02:16:59;3.07;;;2.17;;
36551;SDS011;22559;54.176;12.102;2023-07-13T02:19:24;2.53;;;1.97;;
36551;SDS011;22559;54.176;12.102;2023-07-13T02:21:50;2.20;;;2.10;;
36551;SDS011;22559;54.176;12.102;2023-07-13T02:24:16;2.87;;;2.40;;
36551;SDS011;22559;54.176;12.102;2023-07-13T02:26:44;3.50;;;2.23;;
36551;SDS011;22559;54.176;12.102;2023-07-13T02:29:10;3.43;;;2.60;;
36551;SDS011;22559;54.176;12.102;2023-07-13T02:31:36;2.70;;;2.27;;
36551;SDS011;22559;54.176;12.102;2023-07-13T02:34:01;3.73;;;2.30;;
36551;SDS011;22559;54.176;12.102;2023-07-13T02:36:28;2.80;;;2.27;;
36551;SDS011;22559;54.176;12.102;2023-07-13T02:38:53;3.87;;;3.20;;
36551;SDS011;22559;54.176;12.102;2023-07-13T02:41:19;3.47;;;2.80;;
36551;SDS011;22559;54.176;12.102;2023-07-13T02:43:45;3.00;;;2.50;;
36551;SDS011;22559;54.176;12.102;2023-07-13T02:46:11;3.43;;;2.77;;
36551;SDS011;22559;54.176;12.102;2023-07-13T02:48:37;5.07;;;2.80;;
36551;SDS011;22559;54.176;12.102;2023-07-13T02:51:04;3.70;;;2.60;;
36551;SDS011;22559;54.176;12.102;2023-07-13T02:53:29;4.03;;;2.23;;
36551;SDS011;22559;54.176;12.102;2023-07-13T02:55:55;2.77;;;2.40;;
36551;SDS011;22559;54.176;12.102;2023-07-13T02:58:21;2.37;;;2.17;;
36551;SDS011;22559;54.176;12.102;2023-07-13T03:00:47;4.63;;;2.57;;
36551;SDS011;22559;54.176;12.102;2023-07-13T03:03:15;7.13;;;2.27;;
36551;SDS011;22559;54.176;12.102;2023-07-13T03:05:42;2.33;;;2.17;;
36551;SDS011;22559;54.176;12.102;2023-07-13T03:08:10;2.57;;;1.97;;
36551;SDS011;22559;54.176;12.102;2023-07-13T03:10:36;3.27;;;2.40;;
36551;SDS011;22559;54.176;12.102;2023-07-13T03:13:04;3.10;;;2.20;;
36551;SDS011;22559;54.176;12.102;2023-07-13T03:15:30;2.60;;;2.40;;
36551;SDS011;22559;54.176;12.102;2023-07-13T03:17:55;3.43;;;2.50;;
36551;SDS011;22559;54.176;12.102;2023-07-13T03:20:21;3.10;;;2.53;;
36551;SDS011;22559;54.176;12.102;2023-07-13T03:22:46;4.13;;;2.40;;
36551;SDS011;22559;54.176;12.102;2023-07-13T03:25:12;5.53;;;2.40;;
36551;SDS011;22559;54.176;12.102;2023-07-13T03:27:38;4.40;;;2.73;;
36551;SDS011;22559;54.176;12.102;2023-07-13T03:30:04;2.57;;;2.37;;
36551;SDS011;22559;54.176;12.102;2023-07-13T03:32:31;2.73;;;2.20;;
36551;SDS011;22559;54.176;12.102;2023-07-13T03:34:57;4.10;;;2.10;;
36551;SDS011;22559;54.176;12.102;2023-07-13T03:37:22;2.50;;;2.30;;
36551;SDS011;22559;54.176;12.102;2023-07-13T03:39:48;3.00;;;2.70;;
36551;SDS011;22559;54.176;12.102;2023-07-13T03:42:14;3.23;;;3.03;;
36551;SDS011;22559;54.176;12.102;2023-07-13T03:44:40;5.43;;;3.03;;
36551;SDS011;22559;54.176;12.102;2023-07-13T03:47:06;5.13;;;2.63;;
36551;SDS011;22559;54.176;12.102;2023-07-13T03:49:33;3.73;;;2.80;;
36551;SDS011;22559;54.176;12.102;2023-07-13T03:52:01;4.33;;;2.50;;
36551;SDS011;22559;54.176;12.102;2023-07-13T03:54:26;5.67;;;2.63;;
36551;SDS011;22559;54.176;12.102;2023-07-13T03:56:52;4.73;;;2.63;;
36551;SDS011;22559;54.176;12.102;2023-07-13T03:59:17;2.97;;;2.77;;
36551;SDS011;22559;54.176;12.102;2023-07-13T04:01:43;5.80;;;2.57;;
36551;SDS011;22559;54.176;12.102;2023-07-13T04:04:09;3.63;;;2.97;;
36551;SDS011;22559;54.176;12.102;2023-07-13T04:06:35;3.50;;;2.83;;
36551;SDS011;22559;54.176;12.102;2023-07-13T04:09:01;2.87;;;2.67;;
36551;SDS011;22559;54.176;12.102;2023-07-13T04:11:30;4.27;;;2.80;;
36551;SDS011;22559;54.176;12.102;2023-07-13T04:13:57;3.20;;;2.90;;
36551;SDS011;22559;54.176;12.102;2023-07-13T04:16:23;5.60;;;3.37;;
36551;SDS011;22559;54.176;12.102;2023-07-13T04:18:49;4.50;;;3.00;;
36551;SDS011;22559;54.176;12.102;2023-07-13T04:21:15;3.83;;;3.07;;
36551;SDS011;22559;54.176;12.102;2023-07-13T04:23:41;3.17;;;2.93;;
36551;SDS011;22559;54.176;12.102;2023-07-13T04:26:07;5.23;;;3.10;;
36551;SDS011;22559;54.176;12.102;2023-07-13T04:28:33;5.07;;;3.17;;
36551;SDS011;22559;54.176;12.102;2023-07-13T04:30:59;6.83;;;3.30;;
36551;SDS011;22559;54.176;12.102;2023-07-13T04:33:26;3.97;;;3.53;;
36551;SDS011;22559;54.176;12.102;2023-07-13T04:35:52;4.80;;;3.93;;
36551;SDS011;22559;54.176;12.102;2023-07-13T04:38:22;7.67;;;3.70;;
36551;SDS011;22559;54.176;12.102;2023-07-13T04:40:49;3.90;;;3.50;;
36551;SDS011;22559;54.176;12.102;2023-07-13T04:43:16;7.70;;;3.43;;
36551;SDS011;22559;54.176;12.102;2023-07-13T04:45:41;3.93;;;2.90;;
36551;SDS011;22559;54.176;12.102;2023-07-13T04:48:07;4.53;;;2.97;;
36551;SDS011;22559;54.176;12.102;2023-07-13T04:50:33;3.20;;;2.90;;
36551;SDS011;22559;54.176;12.102;2023-07-13T04:53:01;4.77;;;3.03;;
36551;SDS011;22559;54.176;12.102;2023-07-13T04:55:27;5.57;;;2.70;;
36551;SDS011;22559;54.176;12.102;2023-07-13T04:57:55;2.77;;;2.50;;
36551;SDS011;22559;54.176;12.102;2023-07-13T05:00:23;3.23;;;2.30;;
36551;SDS011;22559;54.176;12.102;2023-07-13T05:02:50;5.63;;;3.00;;
36551;SDS011;22559;54.176;12.102;2023-07-13T05:05:16;4.97;;;2.70;;
36551;SDS011;22559;54.176;12.102;2023-07-13T05:07:41;2.57;;;2.37;;
36551;SDS011;22559;54.176;12.102;2023-07-13T05:10:07;4.20;;;2.20;;
36551;SDS011;22559;54.176;12.102;2023-07-13T05:12:34;3.07;;;2.23;;
36551;SDS011;22559;54.176;12.102;2023-07-13T05:15:00;2.07;;;1.93;;
36551;SDS011;22559;54.176;12.102;2023-07-13T05:17:26;2.40;;;2.10;;
36551;SDS011;22559;54.176;12.102;2023-07-13T05:19:51;2.57;;;2.37;;
36551;SDS011;22559;54.176;12.102;2023-07-13T05:22:17;2.20;;;2.00;;
36551;SDS011;22559;54.176;12.102;2023-07-13T05:24:43;5.83;;;2.60;;
36551;SDS011;22559;54.176;12.102;2023-07-13T05:27:08;2.93;;;2.23;;
36551;SDS011;22559;54.176;12.102;2023-07-13T05:29:34;2.97;;;1.93;;
36551;SDS011;22559;54.176;12.102;2023-07-13T05:31:59;4.40;;;2.20;;
36551;SDS011;22559;54.176;12.102;2023-07-13T05:34:25;2.33;;;2.23;;
36551;SDS011;22559;54.176;12.102;2023-07-13T05:36:51;5.15;;;2.47;;
36551;SDS011;22559;54.176;12.102;2023-07-13T05:39:17;3.93;;;3.47;;
36551;SDS011;22559;54.176;12.102;2023-07-13T05:41:43;6.20;;;4.13;;
36551;SDS011;22559;54.176;12.102;2023-07-13T05:44:09;2.27;;;2.00;;
36551;SDS011;22559;54.176;12.102;2023-07-13T05:46:35;1.93;;;1.83;;
36551;SDS011;22559;54.176;12.102;2023-07-13T05:49:01;4.23;;;2.13;;
36551;SDS011;22559;54.176;12.102;2023-07-13T05:51:26;3.13;;;2.00;;
36551;SDS011;22559;54.176;12.102;2023-07-13T05:53:52;2.47;;;2.17;;
36551;SDS011;22559;54.176;12.102;2023-07-13T05:56:17;2.72;;;2.10;;
36551;SDS011;22559;54.176;12.102;2023-07-13T05:58:43;4.30;;;3.83;;
36551;SDS011;22559;54.176;12.102;2023-07-13T06:01:10;3.33;;;2.03;;
36551;SDS011;22559;54.176;12.102;2023-07-13T06:03:37;2.23;;;2.00;;
36551;SDS011;22559;54.176;12.102;2023-07-13T06:06:06;2.92;;;2.30;;
36551;SDS011;22559;54.176;12.102;2023-07-13T06:08:34;2.25;;;2.05;;
36551;SDS011;22559;54.176;12.102;2023-07-13T06:13:34;4.13;;;2.47;;
36551;SDS011;22559;54.176;12.102;2023-07-13T06:16:00;2.30;;;2.10;;
36551;SDS011;22559;54.176;12.102;2023-07-13T06:18:29;2.55;;;2.22;;
36551;SDS011;22559;54.176;12.102;2023-07-13T06:20:55;2.75;;;2.17;;
36551;SDS011;22559;54.176;12.102;2023-07-13T06:23:22;4.38;;;2.40;;
36551;SDS011;22559;54.176;12.102;2023-07-13T06:25:47;2.70;;;2.50;;
36551;SDS011;22559;54.176;12.102;2023-07-13T06:28:13;3.50;;;2.25;;
36551;SDS011;22559;54.176;12.102;2023-07-13T06:30:39;3.75;;;2.38;;
36551;SDS011;22559;54.176;12.102;2023-07-13T06:33:04;3.30;;;2.30;;
36551;SDS011;22559;54.176;12.102;2023-07-13T06:35:30;3.25;;;2.25;;
36551;SDS011;22559;54.176;12.102;2023-07-13T06:37:56;2.47;;;2.00;;
36551;SDS011;22559;54.176;12.102;2023-07-13T06:40:21;2.60;;;2.40;;
36551;SDS011;22559;54.176;12.102;2023-07-13T06:42:47;2.65;;;2.20;;
36551;SDS011;22559;54.176;12.102;2023-07-13T06:45:12;2.85;;;2.28;;
36551;SDS011;22559;54.176;12.102;2023-07-13T06:47:38;2.00;;;1.90;;
36551;SDS011;22559;54.176;12.102;2023-07-13T06:50:04;3.00;;;2.25;;
36551;SDS011;22559;54.176;12.102;2023-07-13T06:52:30;3.88;;;2.10;;
36551;SDS011;22559;54.176;12.102;2023-07-13T06:54:55;3.80;;;1.85;;
36551;SDS011;22559;54.176;12.102;2023-07-13T06:57:21;3.05;;;2.08;;
36551;SDS011;22559;54.176;12.102;2023-07-13T06:59:47;1.83;;;1.73;;
36551;SDS011;22559;54.176;12.102;2023-07-13T07:02:13;2.45;;;2.00;;
36551;SDS011;22559;54.176;12.102;2023-07-13T07:04:38;3.42;;;2.50;;
36551;SDS011;22559;54.176;12.102;2023-07-13T07:07:04;2.58;;;2.15;;
36551;SDS011;22559;54.176;12.102;2023-07-13T07:09:30;1.75;;;1.65;;
36551;SDS011;22559;54.176;12.102;2023-07-13T07:11:56;5.00;;;1.83;;
36551;SDS011;22559;54.176;12.102;2023-07-13T07:14:22;2.25;;;1.75;;
36551;SDS011;22559;54.176;12.102;2023-07-13T07:16:48;5.38;;;2.30;;
36551;SDS011;22559;54.176;12.102;2023-07-13T07:19:15;3.55;;;2.15;;
36551;SDS011;22559;54.176;12.102;2023-07-13T07:21:41;3.10;;;2.25;;
36551;SDS011;22559;54.176;12.102;2023-07-13T07:24:06;2.75;;;1.92;;
36551;SDS011;22559;54.176;12.102;2023-07-13T07:26:32;4.93;;;2.03;;
36551;SDS011;22559;54.176;12.102;2023-07-13T07:28:58;3.65;;;2.00;;
36551;SDS011;22559;54.176;12.102;2023-07-13T07:31:24;6.50;;;2.30;;
36551;SDS011;22559;54.176;12.102;2023-07-13T07:33:49;3.58;;;2.00;;
36551;SDS011;22559;54.176;12.102;2023-07-13T07:36:15;4.32;;;2.47;;
36551;SDS011;22559;54.176;12.102;2023-07-13T07:38:42;4.15;;;1.67;;
36551;SDS011;22559;54.176;12.102;2023-07-13T07:41:08;5.20;;;2.00;;
36551;SDS011;22559;54.176;12.102;2023-07-13T07:43:33;3.30;;;2.05;;
36551;SDS011;22559;54.176;12.102;2023-07-13T07:46:00;3.33;;;2.05;;
36551;SDS011;22559;54.176;12.102;2023-07-13T07:48:25;2.40;;;1.80;;
36551;SDS011;22559;54.176;12.102;2023-07-13T07:50:51;2.40;;;2.20;;
36551;SDS011;22559;54.176;12.102;2023-07-13T07:53:16;2.20;;;2.00;;
36551;SDS011;22559;54.176;12.102;2023-07-13T07:55:42;4.60;;;2.42;;
36551;SDS011;22559;54.176;12.102;2023-07-13T07:58:08;5.38;;;2.38;;
36551;SDS011;22559;54.176;12.102;2023-07-13T08:00:33;3.22;;;2.08;;
36551;SDS011;22559;54.176;12.102;2023-07-13T08:03:00;2.15;;;1.95;;
36551;SDS011;22559;54.176;12.102;2023-07-13T08:05:27;2.08;;;1.88;;
36551;SDS011;22559;54.176;12.102;2023-07-13T08:07:53;2.47;;;1.80;;
36551;SDS011;22559;54.176;12.102;2023-07-13T08:10:18;2.30;;;2.08;;
36551;SDS011;22559;54.176;12.102;2023-07-13T08:12:44;4.78;;;2.08;;
36551;SDS011;22559;54.176;12.102;2023-07-13T08:15:11;7.03;;;2.08;;
36551;SDS011;22559;54.176;12.102;2023-07-13T08:17:38;7.32;;;2.10;;
36551;SDS011;22559;54.176;12.102;2023-07-13T08:20:04;5.88;;;2.10;;
36551;SDS011;22559;54.176;12.102;2023-07-13T08:22:30;3.05;;;2.00;;
36551;SDS011;22559;54.176;12.102;2023-07-13T08:24:56;3.53;;;2.15;;
36551;SDS011;22559;54.176;12.102;2023-07-13T08:27:25;2.00;;;1.80;;
36551;SDS011;22559;54.176;12.102;2023-07-13T08:29:51;3.50;;;2.13;;
36551;SDS011;22559;54.176;12.102;2023-07-13T08:32:18;2.83;;;1.90;;
36551;SDS011;22559;54.176;12.102;2023-07-13T08:34:44;3.83;;;2.20;;
36551;SDS011;22559;54.176;12.102;2023-07-13T08:37:10;4.85;;;2.10;;
36551;SDS011;22559;54.176;12.102;2023-07-13T08:39:36;11.23;;;2.10;;
36551;SDS011;22559;54.176;12.102;2023-07-13T08:42:07;2.33;;;2.03;;
36551;SDS011;22559;54.176;12.102;2023-07-13T08:45:00;2.58;;;2.13;;
36551;SDS011;22559;54.176;12.102;2023-07-13T08:47:30;4.57;;;2.47;;
36551;SDS011;22559;54.176;12.102;2023-07-13T08:50:00;4.40;;;2.08;;
36551;SDS011;22559;54.176;12.102;2023-07-13T08:52:31;4.63;;;2.08;;
36551;SDS011;22559;54.176;12.102;2023-07-13T08:55:06;4.00;;;1.90;;
36551;SDS011;22559;54.176;12.102;2023-07-13T08:57:35;4.90;;;2.30;;
36551;SDS011;22559;54.176;12.102;2023-07-13T09:00:01;5.63;;;2.10;;
36551;SDS011;22559;54.176;12.102;2023-07-13T09:05:44;4.30;;;2.10;;
36551;SDS011;22559;54.176;12.102;2023-07-13T09:10:58;4.97;;;2.10;;
36551;SDS011;22559;54.176;12.102;2023-07-13T09:16:23;3.60;;;1.85;;
36551;SDS011;22559;54.176;12.102;2023-07-13T09:18:50;3.25;;;2.33;;
36551;SDS011;22559;54.176;12.102;2023-07-13T09:21:23;3.38;;;1.90;;
36551;SDS011;22559;54.176;12.102;2023-07-13T09:26:58;2.13;;;1.92;;
36551;SDS011;22559;54.176;12.102;2023-07-13T09:29:29;4.25;;;2.35;;
36551;SDS011;22559;54.176;12.102;2023-07-13T09:32:00;2.55;;;2.25;;
36551;SDS011;22559;54.176;12.102;2023-07-13T09:34:29;4.00;;;2.72;;
36551;SDS011;22559;54.176;12.102;2023-07-13T09:36:57;8.25;;;3.00;;
36551;SDS011;22559;54.176;12.102;2023-07-13T09:39:25;11.57;;;3.78;;
36551;SDS011;22559;54.176;12.102;2023-07-13T09:41:56;5.35;;;1.90;;
36551;SDS011;22559;54.176;12.102;2023-07-13T09:44:36;7.28;;;2.20;;
36551;SDS011;22559;54.176;12.102;2023-07-13T09:47:12;4.45;;;1.50;;
36551;SDS011;22559;54.176;12.102;2023-07-13T09:49:44;1.48;;;1.38;;
36551;SDS011;22559;54.176;12.102;2023-07-13T09:52:12;3.03;;;1.40;;
36551;SDS011;22559;54.176;12.102;2023-07-13T09:54:43;2.73;;;1.43;;
36551;SDS011;22559;54.176;12.102;2023-07-13T09:57:14;2.60;;;1.97;;
36551;SDS011;22559;54.176;12.102;2023-07-13T09:59:43;4.37;;;2.80;;
36551;SDS011;22559;54.176;12.102;2023-07-13T10:02:32;8.93;;;2.97;;
36551;SDS011;22559;54.176;12.102;2023-07-13T10:05:03;4.00;;;2.77;;
36551;SDS011;22559;54.176;12.102;2023-07-13T10:07:31;8.40;;;3.07;;
36551;SDS011;22559;54.176;12.102;2023-07-13T10:10:00;9.00;;;3.20;;
36551;SDS011;22559;54.176;12.102;2023-07-13T10:12:28;6.80;;;3.00;;
36551;SDS011;22559;54.176;12.102;2023-07-13T10:15:00;6.20;;;3.67;;
36551;SDS011;22559;54.176;12.102;2023-07-13T10:17:28;7.43;;;3.90;;
36551;SDS011;22559;54.176;12.102;2023-07-13T10:19:56;5.90;;;4.00;;
36551;SDS011;22559;54.176;12.102;2023-07-13T10:22:33;4.27;;;3.13;;
36551;SDS011;22559;54.176;12.102;2023-07-13T10:25:02;5.30;;;3.80;;
36551;SDS011;22559;54.176;12.102;2023-07-13T10:27:34;6.33;;;3.87;;
36551;SDS011;22559;54.176;12.102;2023-07-13T10:30:11;4.65;;;3.80;;
36551;SDS011;22559;54.176;12.102;2023-07-13T10:32:38;6.60;;;3.92;;
36551;SDS011;22559;54.176;12.102;2023-07-13T10:35:04;8.60;;;4.25;;
36551;SDS011;22559;54.176;12.102;2023-07-13T10:38:06;6.10;;;3.42;;
36551;SDS011;22559;54.176;12.102;2023-07-13T10:40:39;7.22;;;3.13;;
36551;SDS011;22559;54.176;12.102;2023-07-13T10:43:14;7.50;;;3.58;;
36551;SDS011;22559;54.176;12.102;2023-07-13T10:45:46;7.03;;;3.13;;
36551;SDS011;22559;54.176;12.102;2023-07-13T10:48:15;9.85;;;3.47;;
36551;SDS011;22559;54.176;12.102;2023-07-13T10:50:41;10.02;;;3.50;;
36551;SDS011;22559;54.176;12.102;2023-07-13T11:03:33;7.68;;;3.30;;
36551;SDS011;22559;54.176;12.102;2023-07-13T11:06:08;4.88;;;2.50;;
36551;SDS011;22559;54.176;12.102;2023-07-13T11:18:48;3.35;;;2.08;;
36551;SDS011;22559;54.176;12.102;2023-07-13T11:21:15;3.03;;;1.80;;
36551;SDS011;22559;54.176;12.102;2023-07-13T11:23:43;3.83;;;2.10;;
36551;SDS011;22559;54.176;12.102;2023-07-13T11:31:54;3.15;;;1.83;;
36551;SDS011;22559;54.176;12.102;2023-07-13T11:34:31;4.13;;;3.45;;
36551;SDS011;22559;54.176;12.102;2023-07-13T11:37:01;3.95;;;2.30;;
36551;SDS011;22559;54.176;12.102;2023-07-13T11:39:36;3.15;;;1.98;;
36551;SDS011;22559;54.176;12.102;2023-07-13T11:42:08;2.95;;;1.90;;
36551;SDS011;22559;54.176;12.102;2023-07-13T11:44:41;3.70;;;2.20;;
36551;SDS011;22559;54.176;12.102;2023-07-13T11:47:14;3.78;;;2.13;;
36551;SDS011;22559;54.176;12.102;2023-07-13T11:49:47;2.22;;;1.88;;
36551;SDS011;22559;54.176;12.102;2023-07-13T11:52:15;4.28;;;2.00;;
36551;SDS011;22559;54.176;12.102;2023-07-13T11:54:48;5.57;;;2.28;;
36551;SDS011;22559;54.176;12.102;2023-07-13T11:59:48;3.85;;;2.38;;
36551;SDS011;22559;54.176;12.102;2023-07-13T12:02:21;4.30;;;1.98;;
36551;SDS011;22559;54.176;12.102;2023-07-13T12:04:56;2.85;;;2.05;;
36551;SDS011;22559;54.176;12.102;2023-07-13T12:07:23;2.85;;;2.13;;
36551;SDS011;22559;54.176;12.102;2023-07-13T12:09:49;4.28;;;2.05;;
36551;SDS011;22559;54.176;12.102;2023-07-13T12:12:19;2.97;;;1.95;;
36551;SDS011;22559;54.176;12.102;2023-07-13T12:14:46;1.98;;;1.75;;
36551;SDS011;22559;54.176;12.102;2023-07-13T12:17:16;5.13;;;1.90;;
36551;SDS011;22559;54.176;12.102;2023-07-13T12:19:46;5.60;;;2.25;;
36551;SDS011;22559;54.176;12.102;2023-07-13T12:22:14;5.50;;;1.95;;
36551;SDS011;22559;54.176;12.102;2023-07-13T12:24:41;2.95;;;2.10;;
36551;SDS011;22559;54.176;12.102;2023-07-13T12:27:22;3.85;;;1.65;;
36551;SDS011;22559;54.176;12.102;2023-07-13T12:29:50;3.88;;;1.88;;
36551;SDS011;22559;54.176;12.102;2023-07-13T12:32:18;5.53;;;2.10;;
36551;SDS011;22559;54.176;12.102;2023-07-13T12:34:54;1.67;;;1.50;;
36551;SDS011;22559;54.176;12.102;2023-07-13T12:37:43;3.90;;;1.90;;
36551;SDS011;22559;54.176;12.102;2023-07-13T12:40:17;2.22;;;1.90;;
36551;SDS011;22559;54.176;12.102;2023-07-13T12:42:46;3.47;;;1.88;;
36551;SDS011;22559;54.176;12.102;2023-07-13T12:45:22;4.25;;;2.10;;
36551;SDS011;22559;54.176;12.102;2023-07-13T12:47:52;4.93;;;2.92;;
36551;SDS011;22559;54.176;12.102;2023-07-13T12:50:21;1.58;;;1.42;;
36551;SDS011;22559;54.176;12.102;2023-07-13T12:52:53;3.20;;;1.60;;
36551;SDS011;22559;54.176;12.102;2023-07-13T12:55:21;5.93;;;1.95;;
36551;SDS011;22559;54.176;12.102;2023-07-13T12:57:51;6.05;;;2.28;;
36551;SDS011;22559;54.176;12.102;2023-07-13T13:02:57;1.70;;;1.60;;
36551;SDS011;22559;54.176;12.102;2023-07-13T13:05:28;5.30;;;1.95;;
36551;SDS011;22559;54.176;12.102;2023-07-13T13:07:55;7.78;;;2.25;;
36551;SDS011;22559;54.176;12.102;2023-07-13T13:10:20;6.53;;;2.35;;
36551;SDS011;22559;54.176;12.102;2023-07-13T13:12:46;2.67;;;1.98;;
36551;SDS011;22559;54.176;12.102;2023-07-13T13:15:12;3.85;;;2.15;;
36551;SDS011;22559;54.176;12.102;2023-07-13T13:17:38;3.72;;;2.05;;
36551;SDS011;22559;54.176;12.102;2023-07-13T13:20:38;7.32;;;2.53;;
36551;SDS011;22559;54.176;12.102;2023-07-13T13:22:56;3.00;;;2.10;;
36551;SDS011;22559;54.176;12.102;2023-07-13T13:25:22;3.80;;;1.98;;
36551;SDS011;22559;54.176;12.102;2023-07-13T13:27:48;7.05;;;4.68;;
36551;SDS011;22559;54.176;12.102;2023-07-13T13:30:16;11.30;;;6.65;;
36551;SDS011;22559;54.176;12.102;2023-07-13T13:32:43;2.78;;;2.08;;
36551;SDS011;22559;54.176;12.102;2023-07-13T13:35:14;2.30;;;1.80;;
36551;SDS011;22559;54.176;12.102;2023-07-13T13:37:42;3.05;;;2.00;;
36551;SDS011;22559;54.176;12.102;2023-07-13T13:40:17;3.17;;;1.67;;
36551;SDS011;22559;54.176;12.102;2023-07-13T13:42:48;1.50;;;1.40;;
36551;SDS011;22559;54.176;12.102;2023-07-13T13:45:14;1.80;;;1.70;;
36551;SDS011;22559;54.176;12.102;2023-07-13T13:47:42;4.38;;;1.83;;
36551;SDS011;22559;54.176;12.102;2023-07-13T13:50:11;1.77;;;1.45;;
36551;SDS011;22559;54.176;12.102;2023-07-13T13:52:38;3.60;;;2.22;;
36551;SDS011;22559;54.176;12.102;2023-07-13T13:55:10;3.28;;;2.45;;
36551;SDS011;22559;54.176;12.102;2023-07-13T13:57:41;1.48;;;1.35;;
36551;SDS011;22559;54.176;12.102;2023-07-13T14:00:10;1.50;;;1.30;;
36551;SDS011;22559;54.176;12.102;2023-07-13T14:02:39;3.22;;;1.50;;
36551;SDS011;22559;54.176;12.102;2023-07-13T14:05:09;2.05;;;1.67;;
36551;SDS011;22559;54.176;12.102;2023-07-13T14:07:38;2.55;;;1.30;;
36551;SDS011;22559;54.176;12.102;2023-07-13T14:10:08;1.45;;;1.20;;
36551;SDS011;22559;54.176;12.102;2023-07-13T14:12:43;1.95;;;1.42;;
36551;SDS011;22559;54.176;12.102;2023-07-13T14:15:18;3.15;;;1.42;;
36551;SDS011;22559;54.176;12.102;2023-07-13T14:17:52;1.85;;;1.13;;
36551;SDS011;22559;54.176;12.102;2023-07-13T14:20:19;1.95;;;1.17;;
36551;SDS011;22559;54.176;12.102;2023-07-13T14:22:48;1.95;;;1.35;;
36551;SDS011;22559;54.176;12.102;2023-07-13T14:25:15;1.33;;;1.20;;
36551;SDS011;22559;54.176;12.102;2023-07-13T14:27:42;2.78;;;1.30;;
36551;SDS011;22559;54.176;12.102;2023-07-13T14:30:19;1.73;;;1.00;;
36551;SDS011;22559;54.176;12.102;2023-07-13T14:32:46;1.50;;;1.40;;
36551;SDS011;22559;54.176;12.102;2023-07-13T14:35:15;1.98;;;1.33;;
36551;SDS011;22559;54.176;12.102;2023-07-13T14:37:48;1.48;;;1.30;;
36551;SDS011;22559;54.176;12.102;2023-07-13T14:40:17;0.93;;;0.93;;
36551;SDS011;22559;54.176;12.102;2023-07-13T14:42:54;2.15;;;1.20;;
36551;SDS011;22559;54.176;12.102;2023-07-13T14:45:20;1.38;;;1.33;;
36551;SDS011;22559;54.176;12.102;2023-07-13T14:47:48;7.10;;;1.80;;
36551;SDS011;22559;54.176;12.102;2023-07-13T14:50:18;1.60;;;1.35;;
36551;SDS011;22559;54.176;12.102;2023-07-13T14:52:46;1.60;;;1.50;;
36551;SDS011;22559;54.176;12.102;2023-07-13T14:55:18;2.15;;;1.75;;
36551;SDS011;22559;54.176;12.102;2023-07-13T14:57:44;3.40;;;1.50;;
36551;SDS011;22559;54.176;12.102;2023-07-13T15:00:17;1.75;;;1.65;;
36551;SDS011;22559;54.176;12.102;2023-07-13T15:02:47;1.92;;;1.80;;
36551;SDS011;22559;54.176;12.102;2023-07-13T15:05:22;2.33;;;1.85;;
36551;SDS011;22559;54.176;12.102;2023-07-13T15:07:50;1.55;;;1.50;;
36551;SDS011;22559;54.176;12.102;2023-07-13T15:10:20;1.98;;;1.88;;
36551;SDS011;22559;54.176;12.102;2023-07-13T15:12:48;2.80;;;1.90;;
36551;SDS011;22559;54.176;12.102;2023-07-13T15:15:19;3.50;;;2.05;;
36551;SDS011;22559;54.176;12.102;2023-07-13T15:17:46;2.00;;;1.80;;
36551;SDS011;22559;54.176;12.102;2023-07-13T15:20:18;2.83;;;1.70;;
36551;SDS011;22559;54.176;12.102;2023-07-13T15:22:55;1.92;;;1.70;;
36551;SDS011;22559;54.176;12.102;2023-07-13T15:25:25;2.35;;;1.65;;
36551;SDS011;22559;54.176;12.102;2023-07-13T15:27:53;5.22;;;1.55;;